Kezdőlap
METAR-TAF:

METAR-TAF

Repülőterek :

Makkovik, Újfundland és Labrador, Kanada

földrajzi szélesség: 55-05N, földrajzi hosszúság: 059-11W, magasság: 71 m

Jelenlegi meteorológiai megfigyelések

A jelentés 29 perccel ezelõtt készült, 10:00 UTC
Nyugat-délnyugati szél 28 kt széllökések: 38 kt
Hőmérséklet -20°C
Páratartalom 64%
Légköri nyomás 1017 hPa
Látótávolság: 24.1 km
Borult 3500 lábon

METAR: CYFT 131000Z 24028G38KT 15SM OVC035 M20/M25 A3003 RMK SC8 SLP178

Idő: 06:29 (10:29 UTC)


TAF: hiányzik

Meteorológiai megfigyelések és előrejelzések több, mint 4000 repülőtéren (METAR és TAF jelentéseket).

A térképen piros és sárga pontok jelzik az elérhető meteorológiai állomásokat.

Mozgassa az egeret a pont fölött, hogy megjelenjen az állomás neve.

Azután kattintson az időjárási megfigyelések és előrejelzések megtekintéséhez.

A térkép megváltoztatása: kattintson a fekete keresztel jelölt zöld gombra ráközelítéshez, a vonallal jelölt zöld gombra távolításhoz, vagy a zöld nyilakra a szomszédos térképek eléréséhez.


METAR-TAF: